sensor_id;sensor_type;location;lat;lon;timestamp;P1;durP1;ratioP1;P2;durP2;ratioP2
73675;SDS011;61975;48.660;10.164;2023-09-08T00:00:18;8.17;;;4.80;;
73675;SDS011;61975;48.660;10.164;2023-09-08T00:02:43;9.00;;;4.67;;
73675;SDS011;61975;48.660;10.164;2023-09-08T00:05:09;8.43;;;4.50;;
73675;SDS011;61975;48.660;10.164;2023-09-08T00:07:35;10.23;;;4.97;;
73675;SDS011;61975;48.660;10.164;2023-09-08T00:10:00;8.27;;;4.67;;
73675;SDS011;61975;48.660;10.164;2023-09-08T00:12:26;8.70;;;4.70;;
73675;SDS011;61975;48.660;10.164;2023-09-08T00:14:51;8.13;;;4.53;;
73675;SDS011;61975;48.660;10.164;2023-09-08T00:17:16;8.90;;;4.77;;
73675;SDS011;61975;48.660;10.164;2023-09-08T00:19:42;8.40;;;4.70;;
73675;SDS011;61975;48.660;10.164;2023-09-08T00:22:07;8.03;;;4.13;;
73675;SDS011;61975;48.660;10.164;2023-09-08T00:24:33;7.43;;;4.60;;
73675;SDS011;61975;48.660;10.164;2023-09-08T00:26:58;10.63;;;4.53;;
73675;SDS011;61975;48.660;10.164;2023-09-08T00:29:24;8.93;;;4.53;;
73675;SDS011;61975;48.660;10.164;2023-09-08T00:31:49;7.73;;;4.40;;
73675;SDS011;61975;48.660;10.164;2023-09-08T00:34:14;8.43;;;4.57;;
73675;SDS011;61975;48.660;10.164;2023-09-08T00:36:40;11.33;;;4.87;;
73675;SDS011;61975;48.660;10.164;2023-09-08T00:39:05;8.75;;;4.65;;
73675;SDS011;61975;48.660;10.164;2023-09-08T00:41:31;8.13;;;4.67;;
73675;SDS011;61975;48.660;10.164;2023-09-08T00:43:56;11.50;;;4.83;;
73675;SDS011;61975;48.660;10.164;2023-09-08T00:46:21;8.67;;;4.67;;
73675;SDS011;61975;48.660;10.164;2023-09-08T00:48:47;10.07;;;4.88;;
73675;SDS011;61975;48.660;10.164;2023-09-08T00:51:12;10.73;;;4.83;;
73675;SDS011;61975;48.660;10.164;2023-09-08T00:53:38;9.83;;;4.90;;
73675;SDS011;61975;48.660;10.164;2023-09-08T00:56:04;9.85;;;4.85;;
73675;SDS011;61975;48.660;10.164;2023-09-08T00:58:29;9.13;;;4.70;;
73675;SDS011;61975;48.660;10.164;2023-09-08T01:00:55;8.43;;;4.80;;
73675;SDS011;61975;48.660;10.164;2023-09-08T01:03:24;9.70;;;5.05;;
73675;SDS011;61975;48.660;10.164;2023-09-08T01:05:49;9.70;;;4.70;;
73675;SDS011;61975;48.660;10.164;2023-09-08T01:08:15;8.35;;;4.88;;
73675;SDS011;61975;48.660;10.164;2023-09-08T01:10:42;9.43;;;4.70;;
73675;SDS011;61975;48.660;10.164;2023-09-08T01:13:08;10.67;;;5.10;;
73675;SDS011;61975;48.660;10.164;2023-09-08T01:15:33;8.70;;;5.00;;
73675;SDS011;61975;48.660;10.164;2023-09-08T01:17:58;8.70;;;5.13;;
73675;SDS011;61975;48.660;10.164;2023-09-08T01:20:26;11.87;;;4.80;;
73675;SDS011;61975;48.660;10.164;2023-09-08T01:25:40;8.83;;;4.60;;
73675;SDS011;61975;48.660;10.164;2023-09-08T01:28:11;8.32;;;4.70;;
73675;SDS011;61975;48.660;10.164;2023-09-08T01:30:37;8.60;;;5.00;;
73675;SDS011;61975;48.660;10.164;2023-09-08T01:33:04;8.48;;;4.72;;
73675;SDS011;61975;48.660;10.164;2023-09-08T01:35:30;9.67;;;5.20;;
73675;SDS011;61975;48.660;10.164;2023-09-08T01:37:55;9.95;;;4.65;;
73675;SDS011;61975;48.660;10.164;2023-09-08T01:40:21;8.67;;;4.67;;
73675;SDS011;61975;48.660;10.164;2023-09-08T01:42:47;8.60;;;4.63;;
73675;SDS011;61975;48.660;10.164;2023-09-08T01:45:12;7.80;;;4.50;;
73675;SDS011;61975;48.660;10.164;2023-09-08T01:47:38;7.30;;;4.60;;
73675;SDS011;61975;48.660;10.164;2023-09-08T01:50:03;12.70;;;5.28;;
73675;SDS011;61975;48.660;10.164;2023-09-08T01:52:29;10.60;;;4.90;;
73675;SDS011;61975;48.660;10.164;2023-09-08T01:54:54;10.13;;;4.72;;
73675;SDS011;61975;48.660;10.164;2023-09-08T01:57:20;8.00;;;4.43;;
73675;SDS011;61975;48.660;10.164;2023-09-08T01:59:45;7.93;;;4.60;;
73675;SDS011;61975;48.660;10.164;2023-09-08T02:02:11;11.33;;;4.90;;
73675;SDS011;61975;48.660;10.164;2023-09-08T02:04:37;8.60;;;4.50;;
73675;SDS011;61975;48.660;10.164;2023-09-08T02:07:02;8.30;;;4.70;;
73675;SDS011;61975;48.660;10.164;2023-09-08T02:09:32;8.35;;;4.97;;
73675;SDS011;61975;48.660;10.164;2023-09-08T02:11:58;10.15;;;4.53;;
73675;SDS011;61975;48.660;10.164;2023-09-08T02:14:24;11.23;;;5.00;;
73675;SDS011;61975;48.660;10.164;2023-09-08T02:16:49;7.80;;;4.53;;
73675;SDS011;61975;48.660;10.164;2023-09-08T02:19:15;11.37;;;5.23;;
73675;SDS011;61975;48.660;10.164;2023-09-08T02:21:40;8.77;;;4.60;;
73675;SDS011;61975;48.660;10.164;2023-09-08T02:24:06;8.20;;;4.80;;
73675;SDS011;61975;48.660;10.164;2023-09-08T02:26:31;8.63;;;4.70;;
73675;SDS011;61975;48.660;10.164;2023-09-08T02:28:58;10.30;;;5.23;;
73675;SDS011;61975;48.660;10.164;2023-09-08T02:31:24;9.23;;;4.75;;
73675;SDS011;61975;48.660;10.164;2023-09-08T02:33:49;8.80;;;4.60;;
73675;SDS011;61975;48.660;10.164;2023-09-08T02:36:14;10.97;;;4.83;;
73675;SDS011;61975;48.660;10.164;2023-09-08T02:38:40;9.33;;;4.43;;
73675;SDS011;61975;48.660;10.164;2023-09-08T02:41:05;9.67;;;4.50;;
73675;SDS011;61975;48.660;10.164;2023-09-08T02:43:31;7.70;;;4.50;;
73675;SDS011;61975;48.660;10.164;2023-09-08T02:45:56;10.30;;;4.80;;
73675;SDS011;61975;48.660;10.164;2023-09-08T02:48:21;8.43;;;4.40;;
73675;SDS011;61975;48.660;10.164;2023-09-08T02:50:47;9.73;;;4.70;;
73675;SDS011;61975;48.660;10.164;2023-09-08T02:53:12;8.33;;;4.57;;
73675;SDS011;61975;48.660;10.164;2023-09-08T02:55:38;9.88;;;4.88;;
73675;SDS011;61975;48.660;10.164;2023-09-08T02:58:03;10.25;;;5.35;;
73675;SDS011;61975;48.660;10.164;2023-09-08T03:00:29;9.33;;;4.93;;
73675;SDS011;61975;48.660;10.164;2023-09-08T03:02:54;8.93;;;5.20;;
73675;SDS011;61975;48.660;10.164;2023-09-08T03:05:20;8.90;;;4.97;;
73675;SDS011;61975;48.660;10.164;2023-09-08T03:07:47;8.23;;;4.60;;
73675;SDS011;61975;48.660;10.164;2023-09-08T03:10:13;9.57;;;4.85;;
73675;SDS011;61975;48.660;10.164;2023-09-08T03:12:39;9.00;;;4.83;;
73675;SDS011;61975;48.660;10.164;2023-09-08T03:15:04;8.20;;;4.50;;
73675;SDS011;61975;48.660;10.164;2023-09-08T03:17:30;10.05;;;4.93;;
73675;SDS011;61975;48.660;10.164;2023-09-08T03:19:56;10.30;;;5.03;;
73675;SDS011;61975;48.660;10.164;2023-09-08T03:22:21;10.20;;;4.67;;
73675;SDS011;61975;48.660;10.164;2023-09-08T03:24:46;9.17;;;5.00;;
73675;SDS011;61975;48.660;10.164;2023-09-08T03:27:12;8.63;;;4.50;;
73675;SDS011;61975;48.660;10.164;2023-09-08T03:29:37;8.93;;;5.30;;
73675;SDS011;61975;48.660;10.164;2023-09-08T03:32:03;10.83;;;4.87;;
73675;SDS011;61975;48.660;10.164;2023-09-08T03:34:28;8.83;;;4.73;;
73675;SDS011;61975;48.660;10.164;2023-09-08T03:36:54;8.35;;;4.70;;
73675;SDS011;61975;48.660;10.164;2023-09-08T03:39:19;8.43;;;4.60;;
73675;SDS011;61975;48.660;10.164;2023-09-08T03:41:45;7.70;;;4.77;;
73675;SDS011;61975;48.660;10.164;2023-09-08T03:44:11;8.32;;;4.32;;
73675;SDS011;61975;48.660;10.164;2023-09-08T03:46:36;10.93;;;4.87;;
73675;SDS011;61975;48.660;10.164;2023-09-08T03:49:02;9.57;;;4.90;;
73675;SDS011;61975;48.660;10.164;2023-09-08T03:51:28;8.60;;;4.95;;
73675;SDS011;61975;48.660;10.164;2023-09-08T03:53:53;9.40;;;5.30;;
73675;SDS011;61975;48.660;10.164;2023-09-08T03:56:19;8.93;;;4.95;;
73675;SDS011;61975;48.660;10.164;2023-09-08T03:58:45;8.95;;;5.00;;
73675;SDS011;61975;48.660;10.164;2023-09-08T04:01:11;10.43;;;4.95;;
73675;SDS011;61975;48.660;10.164;2023-09-08T04:03:36;10.10;;;4.97;;
73675;SDS011;61975;48.660;10.164;2023-09-08T04:06:02;8.90;;;4.60;;
73675;SDS011;61975;48.660;10.164;2023-09-08T04:08:27;11.43;;;4.80;;
73675;SDS011;61975;48.660;10.164;2023-09-08T04:10:52;8.13;;;4.43;;
73675;SDS011;61975;48.660;10.164;2023-09-08T04:13:18;8.70;;;4.80;;
73675;SDS011;61975;48.660;10.164;2023-09-08T04:15:52;9.00;;;5.32;;
73675;SDS011;61975;48.660;10.164;2023-09-08T04:18:17;9.93;;;5.07;;
73675;SDS011;61975;48.660;10.164;2023-09-08T04:20:43;10.37;;;5.23;;
73675;SDS011;61975;48.660;10.164;2023-09-08T04:23:08;8.73;;;4.83;;
73675;SDS011;61975;48.660;10.164;2023-09-08T04:25:34;10.93;;;5.47;;
73675;SDS011;61975;48.660;10.164;2023-09-08T04:27:59;8.70;;;4.90;;
73675;SDS011;61975;48.660;10.164;2023-09-08T04:30:25;8.90;;;4.67;;
73675;SDS011;61975;48.660;10.164;2023-09-08T04:32:50;8.47;;;4.63;;
73675;SDS011;61975;48.660;10.164;2023-09-08T04:35:15;8.03;;;4.90;;
73675;SDS011;61975;48.660;10.164;2023-09-08T04:37:41;8.90;;;4.70;;
73675;SDS011;61975;48.660;10.164;2023-09-08T04:40:06;9.30;;;4.50;;
73675;SDS011;61975;48.660;10.164;2023-09-08T04:42:32;11.07;;;4.80;;
73675;SDS011;61975;48.660;10.164;2023-09-08T04:44:58;9.30;;;4.88;;
73675;SDS011;61975;48.660;10.164;2023-09-08T04:47:23;9.77;;;4.53;;
73675;SDS011;61975;48.660;10.164;2023-09-08T04:49:48;9.80;;;5.00;;
73675;SDS011;61975;48.660;10.164;2023-09-08T04:52:14;9.40;;;5.10;;
73675;SDS011;61975;48.660;10.164;2023-09-08T04:54:39;8.43;;;5.03;;
73675;SDS011;61975;48.660;10.164;2023-09-08T04:57:05;8.55;;;4.60;;
73675;SDS011;61975;48.660;10.164;2023-09-08T04:59:30;8.83;;;4.70;;
73675;SDS011;61975;48.660;10.164;2023-09-08T05:01:57;8.77;;;4.47;;
73675;SDS011;61975;48.660;10.164;2023-09-08T05:04:23;9.43;;;5.20;;
73675;SDS011;61975;48.660;10.164;2023-09-08T05:06:48;9.20;;;5.00;;
73675;SDS011;61975;48.660;10.164;2023-09-08T05:09:14;9.00;;;4.80;;
73675;SDS011;61975;48.660;10.164;2023-09-08T05:11:40;9.07;;;4.47;;
73675;SDS011;61975;48.660;10.164;2023-09-08T05:14:05;7.72;;;4.38;;
73675;SDS011;61975;48.660;10.164;2023-09-08T05:16:31;7.30;;;4.20;;
73675;SDS011;61975;48.660;10.164;2023-09-08T05:19:10;9.52;;;4.38;;
73675;SDS011;61975;48.660;10.164;2023-09-08T05:21:36;9.10;;;4.40;;
73675;SDS011;61975;48.660;10.164;2023-09-08T05:24:02;7.82;;;4.43;;
73675;SDS011;61975;48.660;10.164;2023-09-08T05:26:27;7.43;;;4.27;;
73675;SDS011;61975;48.660;10.164;2023-09-08T05:28:53;10.77;;;4.70;;
73675;SDS011;61975;48.660;10.164;2023-09-08T05:31:18;8.90;;;5.05;;
73675;SDS011;61975;48.660;10.164;2023-09-08T05:33:44;10.73;;;4.93;;
73675;SDS011;61975;48.660;10.164;2023-09-08T05:36:09;10.60;;;5.13;;
73675;SDS011;61975;48.660;10.164;2023-09-08T05:38:34;9.80;;;5.30;;
73675;SDS011;61975;48.660;10.164;2023-09-08T05:41:00;9.00;;;4.97;;
73675;SDS011;61975;48.660;10.164;2023-09-08T05:43:25;9.38;;;5.05;;
73675;SDS011;61975;48.660;10.164;2023-09-08T05:45:51;8.30;;;4.80;;
73675;SDS011;61975;48.660;10.164;2023-09-08T05:48:16;9.90;;;4.77;;
73675;SDS011;61975;48.660;10.164;2023-09-08T05:50:42;8.97;;;4.90;;
73675;SDS011;61975;48.660;10.164;2023-09-08T05:53:07;9.13;;;5.10;;
73675;SDS011;61975;48.660;10.164;2023-09-08T05:55:33;9.00;;;4.80;;
73675;SDS011;61975;48.660;10.164;2023-09-08T05:57:58;8.60;;;5.20;;
73675;SDS011;61975;48.660;10.164;2023-09-08T06:00:23;9.17;;;4.83;;
73675;SDS011;61975;48.660;10.164;2023-09-08T06:02:49;8.93;;;5.10;;
73675;SDS011;61975;48.660;10.164;2023-09-08T06:05:14;9.63;;;4.78;;
73675;SDS011;61975;48.660;10.164;2023-09-08T06:07:39;9.33;;;5.10;;
73675;SDS011;61975;48.660;10.164;2023-09-08T06:10:05;8.83;;;5.13;;
73675;SDS011;61975;48.660;10.164;2023-09-08T06:12:31;9.52;;;5.43;;
73675;SDS011;61975;48.660;10.164;2023-09-08T06:14:56;10.13;;;5.18;;
73675;SDS011;61975;48.660;10.164;2023-09-08T06:17:21;9.83;;;4.83;;
73675;SDS011;61975;48.660;10.164;2023-09-08T06:19:47;9.47;;;5.30;;
73675;SDS011;61975;48.660;10.164;2023-09-08T06:22:12;11.37;;;5.17;;
73675;SDS011;61975;48.660;10.164;2023-09-08T06:24:37;10.47;;;5.10;;
73675;SDS011;61975;48.660;10.164;2023-09-08T06:27:03;9.23;;;4.87;;
73675;SDS011;61975;48.660;10.164;2023-09-08T06:29:28;10.15;;;5.38;;
73675;SDS011;61975;48.660;10.164;2023-09-08T06:31:54;8.20;;;4.93;;
73675;SDS011;61975;48.660;10.164;2023-09-08T06:34:19;9.10;;;5.00;;
73675;SDS011;61975;48.660;10.164;2023-09-08T06:36:47;9.68;;;5.30;;
73675;SDS011;61975;48.660;10.164;2023-09-08T06:39:12;10.90;;;5.27;;
73675;SDS011;61975;48.660;10.164;2023-09-08T06:41:38;9.20;;;5.17;;
73675;SDS011;61975;48.660;10.164;2023-09-08T06:44:03;11.10;;;5.37;;
73675;SDS011;61975;48.660;10.164;2023-09-08T06:46:29;9.15;;;4.90;;
73675;SDS011;61975;48.660;10.164;2023-09-08T06:48:55;10.63;;;5.27;;
73675;SDS011;61975;48.660;10.164;2023-09-08T06:51:20;8.30;;;4.80;;
73675;SDS011;61975;48.660;10.164;2023-09-08T06:53:53;9.10;;;5.13;;
73675;SDS011;61975;48.660;10.164;2023-09-08T06:56:20;9.10;;;5.40;;
73675;SDS011;61975;48.660;10.164;2023-09-08T06:58:45;9.27;;;4.80;;
73675;SDS011;61975;48.660;10.164;2023-09-08T07:01:11;9.03;;;5.00;;
73675;SDS011;61975;48.660;10.164;2023-09-08T07:03:36;11.10;;;5.10;;
73675;SDS011;61975;48.660;10.164;2023-09-08T07:06:02;9.17;;;4.90;;
73675;SDS011;61975;48.660;10.164;2023-09-08T07:08:27;9.27;;;4.95;;
73675;SDS011;61975;48.660;10.164;2023-09-08T07:10:53;8.40;;;5.00;;
73675;SDS011;61975;48.660;10.164;2023-09-08T07:13:19;7.70;;;4.93;;
73675;SDS011;61975;48.660;10.164;2023-09-08T07:15:44;9.83;;;5.17;;
73675;SDS011;61975;48.660;10.164;2023-09-08T07:18:09;9.60;;;4.93;;
73675;SDS011;61975;48.660;10.164;2023-09-08T07:20:35;8.00;;;5.00;;
73675;SDS011;61975;48.660;10.164;2023-09-08T07:23:00;10.43;;;5.10;;
73675;SDS011;61975;48.660;10.164;2023-09-08T07:25:25;8.97;;;5.23;;
73675;SDS011;61975;48.660;10.164;2023-09-08T07:27:51;10.20;;;5.53;;
73675;SDS011;61975;48.660;10.164;2023-09-08T07:30:18;7.90;;;5.13;;
73675;SDS011;61975;48.660;10.164;2023-09-08T07:32:44;9.70;;;5.00;;
73675;SDS011;61975;48.660;10.164;2023-09-08T07:35:09;8.57;;;4.80;;
73675;SDS011;61975;48.660;10.164;2023-09-08T07:37:39;9.38;;;4.90;;
73675;SDS011;61975;48.660;10.164;2023-09-08T07:40:05;7.97;;;5.27;;
73675;SDS011;61975;48.660;10.164;2023-09-08T07:42:31;8.18;;;5.10;;
73675;SDS011;61975;48.660;10.164;2023-09-08T07:44:57;12.17;;;6.03;;
73675;SDS011;61975;48.660;10.164;2023-09-08T07:47:22;9.57;;;4.90;;
73675;SDS011;61975;48.660;10.164;2023-09-08T07:49:47;9.10;;;5.40;;
73675;SDS011;61975;48.660;10.164;2023-09-08T07:52:13;9.60;;;5.23;;
73675;SDS011;61975;48.660;10.164;2023-09-08T07:54:38;9.60;;;5.27;;
73675;SDS011;61975;48.660;10.164;2023-09-08T07:57:04;11.33;;;5.87;;
73675;SDS011;61975;48.660;10.164;2023-09-08T07:59:29;7.68;;;5.20;;
73675;SDS011;61975;48.660;10.164;2023-09-08T08:01:55;10.00;;;5.50;;
73675;SDS011;61975;48.660;10.164;2023-09-08T08:04:20;8.80;;;5.80;;
73675;SDS011;61975;48.660;10.164;2023-09-08T08:06:45;10.13;;;5.47;;
73675;SDS011;61975;48.660;10.164;2023-09-08T08:09:12;9.05;;;5.90;;
73675;SDS011;61975;48.660;10.164;2023-09-08T08:11:37;8.57;;;5.93;;
73675;SDS011;61975;48.660;10.164;2023-09-08T08:14:03;8.70;;;5.90;;
73675;SDS011;61975;48.660;10.164;2023-09-08T08:16:28;9.13;;;6.03;;
73675;SDS011;61975;48.660;10.164;2023-09-08T08:18:53;9.17;;;6.40;;
73675;SDS011;61975;48.660;10.164;2023-09-08T08:21:19;11.40;;;5.63;;
73675;SDS011;61975;48.660;10.164;2023-09-08T08:23:44;11.20;;;5.83;;
73675;SDS011;61975;48.660;10.164;2023-09-08T08:26:10;9.13;;;5.57;;
73675;SDS011;61975;48.660;10.164;2023-09-08T08:28:35;9.83;;;5.83;;
73675;SDS011;61975;48.660;10.164;2023-09-08T08:31:00;9.88;;;6.00;;
73675;SDS011;61975;48.660;10.164;2023-09-08T08:33:26;11.27;;;6.17;;
73675;SDS011;61975;48.660;10.164;2023-09-08T08:35:52;10.60;;;5.93;;
73675;SDS011;61975;48.660;10.164;2023-09-08T08:38:18;8.80;;;5.85;;
73675;SDS011;61975;48.660;10.164;2023-09-08T08:40:44;9.57;;;5.70;;
73675;SDS011;61975;48.660;10.164;2023-09-08T08:43:09;10.73;;;6.43;;
73675;SDS011;61975;48.660;10.164;2023-09-08T08:45:36;8.90;;;5.53;;
73675;SDS011;61975;48.660;10.164;2023-09-08T08:48:03;9.18;;;6.05;;
73675;SDS011;61975;48.660;10.164;2023-09-08T08:50:29;8.57;;;5.22;;
73675;SDS011;61975;48.660;10.164;2023-09-08T08:52:55;9.10;;;5.88;;
73675;SDS011;61975;48.660;10.164;2023-09-08T08:55:21;7.97;;;5.63;;
73675;SDS011;61975;48.660;10.164;2023-09-08T08:57:48;8.75;;;5.70;;
73675;SDS011;61975;48.660;10.164;2023-09-08T09:00:15;9.83;;;6.10;;
73675;SDS011;61975;48.660;10.164;2023-09-08T09:02:43;10.50;;;6.03;;
73675;SDS011;61975;48.660;10.164;2023-09-08T09:05:12;10.13;;;6.10;;
73675;SDS011;61975;48.660;10.164;2023-09-08T09:07:39;8.55;;;5.53;;
73675;SDS011;61975;48.660;10.164;2023-09-08T09:10:06;8.68;;;5.63;;
73675;SDS011;61975;48.660;10.164;2023-09-08T09:12:32;9.53;;;5.77;;
73675;SDS011;61975;48.660;10.164;2023-09-08T09:14:58;9.75;;;5.70;;
73675;SDS011;61975;48.660;10.164;2023-09-08T09:17:25;9.63;;;5.78;;
73675;SDS011;61975;48.660;10.164;2023-09-08T09:19:51;9.98;;;6.20;;
73675;SDS011;61975;48.660;10.164;2023-09-08T09:22:45;9.32;;;6.47;;
73675;SDS011;61975;48.660;10.164;2023-09-08T09:25:20;9.50;;;5.77;;
73675;SDS011;61975;48.660;10.164;2023-09-08T09:27:57;9.02;;;5.70;;
73675;SDS011;61975;48.660;10.164;2023-09-08T09:30:24;10.45;;;6.07;;
73675;SDS011;61975;48.660;10.164;2023-09-08T09:33:02;7.75;;;5.63;;
73675;SDS011;61975;48.660;10.164;2023-09-08T09:35:48;8.70;;;5.78;;
73675;SDS011;61975;48.660;10.164;2023-09-08T09:38:15;9.00;;;6.07;;
73675;SDS011;61975;48.660;10.164;2023-09-08T09:40:43;10.60;;;6.00;;
73675;SDS011;61975;48.660;10.164;2023-09-08T09:43:09;9.77;;;6.20;;
73675;SDS011;61975;48.660;10.164;2023-09-08T09:45:36;11.90;;;5.50;;
73675;SDS011;61975;48.660;10.164;2023-09-08T09:48:03;9.35;;;6.03;;
73675;SDS011;61975;48.660;10.164;2023-09-08T09:50:33;9.63;;;5.83;;
73675;SDS011;61975;48.660;10.164;2023-09-08T09:52:59;11.10;;;5.90;;
73675;SDS011;61975;48.660;10.164;2023-09-08T09:55:27;8.85;;;5.68;;
73675;SDS011;61975;48.660;10.164;2023-09-08T09:57:56;9.05;;;5.47;;
73675;SDS011;61975;48.660;10.164;2023-09-08T10:00:24;8.05;;;5.40;;
73675;SDS011;61975;48.660;10.164;2023-09-08T10:02:51;9.30;;;6.13;;
73675;SDS011;61975;48.660;10.164;2023-09-08T10:05:18;9.25;;;5.32;;
73675;SDS011;61975;48.660;10.164;2023-09-08T10:07:43;8.83;;;5.70;;
73675;SDS011;61975;48.660;10.164;2023-09-08T10:10:13;10.23;;;5.67;;
73675;SDS011;61975;48.660;10.164;2023-09-08T10:12:39;8.10;;;5.68;;
73675;SDS011;61975;48.660;10.164;2023-09-08T10:15:08;8.73;;;5.78;;
73675;SDS011;61975;48.660;10.164;2023-09-08T10:17:35;9.02;;;6.30;;
73675;SDS011;61975;48.660;10.164;2023-09-08T10:20:02;8.60;;;5.88;;
73675;SDS011;61975;48.660;10.164;2023-09-08T10:22:36;10.70;;;5.87;;
73675;SDS011;61975;48.660;10.164;2023-09-08T10:25:04;8.40;;;5.80;;
73675;SDS011;61975;48.660;10.164;2023-09-08T10:27:32;9.48;;;5.78;;
73675;SDS011;61975;48.660;10.164;2023-09-08T10:29:59;8.30;;;5.47;;
73675;SDS011;61975;48.660;10.164;2023-09-08T10:32:26;8.63;;;5.60;;
73675;SDS011;61975;48.660;10.164;2023-09-08T10:34:53;9.88;;;5.90;;
73675;SDS011;61975;48.660;10.164;2023-09-08T10:39:44;8.43;;;5.53;;
73675;SDS011;61975;48.660;10.164;2023-09-08T10:44:41;8.27;;;5.47;;
73675;SDS011;61975;48.660;10.164;2023-09-08T10:47:34;9.38;;;5.97;;
73675;SDS011;61975;48.660;10.164;2023-09-08T10:50:19;8.20;;;5.55;;
73675;SDS011;61975;48.660;10.164;2023-09-08T10:55:44;8.38;;;5.90;;
73675;SDS011;61975;48.660;10.164;2023-09-08T10:58:35;9.02;;;5.68;;
73675;SDS011;61975;48.660;10.164;2023-09-08T11:01:03;8.75;;;6.18;;
73675;SDS011;61975;48.660;10.164;2023-09-08T11:06:07;10.33;;;6.13;;
73675;SDS011;61975;48.660;10.164;2023-09-08T11:08:38;9.57;;;6.40;;
73675;SDS011;61975;48.660;10.164;2023-09-08T11:11:10;8.88;;;6.45;;
73675;SDS011;61975;48.660;10.164;2023-09-08T11:13:36;10.02;;;6.20;;
73675;SDS011;61975;48.660;10.164;2023-09-08T11:16:01;9.40;;;5.93;;
73675;SDS011;61975;48.660;10.164;2023-09-08T11:18:31;9.35;;;6.63;;
73675;SDS011;61975;48.660;10.164;2023-09-08T11:20:59;9.75;;;6.85;;
73675;SDS011;61975;48.660;10.164;2023-09-08T11:23:27;10.60;;;6.30;;
73675;SDS011;61975;48.660;10.164;2023-09-08T11:25:53;11.23;;;6.43;;
73675;SDS011;61975;48.660;10.164;2023-09-08T11:28:19;9.73;;;6.90;;
73675;SDS011;61975;48.660;10.164;2023-09-08T11:30:46;8.93;;;6.05;;
73675;SDS011;61975;48.660;10.164;2023-09-08T11:33:20;8.38;;;6.03;;
73675;SDS011;61975;48.660;10.164;2023-09-08T11:35:53;9.43;;;6.90;;
73675;SDS011;61975;48.660;10.164;2023-09-08T11:38:26;9.10;;;6.40;;
73675;SDS011;61975;48.660;10.164;2023-09-08T11:40:52;9.03;;;6.17;;
73675;SDS011;61975;48.660;10.164;2023-09-08T11:43:20;8.40;;;5.75;;
73675;SDS011;61975;48.660;10.164;2023-09-08T11:45:45;10.50;;;6.70;;
73675;SDS011;61975;48.660;10.164;2023-09-08T11:48:11;10.37;;;6.40;;
73675;SDS011;61975;48.660;10.164;2023-09-08T11:50:40;9.07;;;6.32;;
73675;SDS011;61975;48.660;10.164;2023-09-08T11:53:06;7.90;;;5.97;;
73675;SDS011;61975;48.660;10.164;2023-09-08T11:55:31;8.97;;;5.90;;
73675;SDS011;61975;48.660;10.164;2023-09-08T11:57:57;9.33;;;6.60;;
73675;SDS011;61975;48.660;10.164;2023-09-08T12:00:23;8.40;;;6.07;;
73675;SDS011;61975;48.660;10.164;2023-09-08T12:02:51;9.67;;;5.93;;
73675;SDS011;61975;48.660;10.164;2023-09-08T12:07:46;8.68;;;6.03;;
73675;SDS011;61975;48.660;10.164;2023-09-08T12:10:13;8.20;;;5.53;;
73675;SDS011;61975;48.660;10.164;2023-09-08T12:12:46;8.67;;;6.03;;
73675;SDS011;61975;48.660;10.164;2023-09-08T12:15:29;9.02;;;6.03;;
73675;SDS011;61975;48.660;10.164;2023-09-08T12:20:31;14.40;;;6.30;;
73675;SDS011;61975;48.660;10.164;2023-09-08T12:22:59;9.07;;;5.83;;
73675;SDS011;61975;48.660;10.164;2023-09-08T12:25:26;18.52;;;7.10;;
73675;SDS011;61975;48.660;10.164;2023-09-08T12:27:53;9.70;;;6.45;;
73675;SDS011;61975;48.660;10.164;2023-09-08T12:30:20;10.63;;;6.50;;
73675;SDS011;61975;48.660;10.164;2023-09-08T12:32:48;8.43;;;6.25;;
73675;SDS011;61975;48.660;10.164;2023-09-08T12:35:19;8.17;;;5.83;;
73675;SDS011;61975;48.660;10.164;2023-09-08T12:38:07;8.88;;;6.25;;
73675;SDS011;61975;48.660;10.164;2023-09-08T12:40:33;9.90;;;6.20;;
73675;SDS011;61975;48.660;10.164;2023-09-08T12:43:00;7.68;;;6.05;;
73675;SDS011;61975;48.660;10.164;2023-09-08T12:45:26;7.50;;;5.70;;
73675;SDS011;61975;48.660;10.164;2023-09-08T12:47:52;9.25;;;6.10;;
73675;SDS011;61975;48.660;10.164;2023-09-08T12:50:20;8.15;;;5.97;;
73675;SDS011;61975;48.660;10.164;2023-09-08T12:52:45;10.05;;;5.78;;
73675;SDS011;61975;48.660;10.164;2023-09-08T12:55:11;9.23;;;5.70;;
73675;SDS011;61975;48.660;10.164;2023-09-08T12:57:36;9.93;;;5.87;;
73675;SDS011;61975;48.660;10.164;2023-09-08T13:00:05;9.37;;;6.00;;
73675;SDS011;61975;48.660;10.164;2023-09-08T13:02:31;7.85;;;5.55;;
73675;SDS011;61975;48.660;10.164;2023-09-08T13:04:56;8.95;;;6.13;;
73675;SDS011;61975;48.660;10.164;2023-09-08T13:07:23;8.20;;;5.60;;
73675;SDS011;61975;48.660;10.164;2023-09-08T13:09:48;12.17;;;6.03;;
73675;SDS011;61975;48.660;10.164;2023-09-08T13:12:13;13.47;;;6.30;;
73675;SDS011;61975;48.660;10.164;2023-09-08T13:14:39;8.10;;;5.53;;
73675;SDS011;61975;48.660;10.164;2023-09-08T13:17:05;9.00;;;5.88;;
73675;SDS011;61975;48.660;10.164;2023-09-08T13:19:31;9.03;;;5.80;;
73675;SDS011;61975;48.660;10.164;2023-09-08T13:21:57;9.98;;;5.97;;
73675;SDS011;61975;48.660;10.164;2023-09-08T13:24:22;8.33;;;5.73;;
73675;SDS011;61975;48.660;10.164;2023-09-08T13:26:48;10.02;;;5.72;;
73675;SDS011;61975;48.660;10.164;2023-09-08T13:29:13;7.30;;;5.63;;
73675;SDS011;61975;48.660;10.164;2023-09-08T13:31:39;10.50;;;5.70;;
73675;SDS011;61975;48.660;10.164;2023-09-08T13:34:05;8.23;;;5.63;;
73675;SDS011;61975;48.660;10.164;2023-09-08T13:36:30;8.70;;;5.57;;
73675;SDS011;61975;48.660;10.164;2023-09-08T13:38:56;7.75;;;5.70;;
73675;SDS011;61975;48.660;10.164;2023-09-08T13:41:21;9.53;;;5.90;;
73675;SDS011;61975;48.660;10.164;2023-09-08T13:43:47;7.70;;;5.70;;
73675;SDS011;61975;48.660;10.164;2023-09-08T13:46:12;7.87;;;5.30;;
73675;SDS011;61975;48.660;10.164;2023-09-08T13:48:37;8.18;;;5.78;;
73675;SDS011;61975;48.660;10.164;2023-09-08T13:51:03;7.33;;;5.27;;
73675;SDS011;61975;48.660;10.164;2023-09-08T13:53:29;8.33;;;5.30;;
73675;SDS011;61975;48.660;10.164;2023-09-08T13:55:56;7.22;;;6.03;;
73675;SDS011;61975;48.660;10.164;2023-09-08T13:58:21;9.23;;;5.47;;
73675;SDS011;61975;48.660;10.164;2023-09-08T14:00:47;6.57;;;5.20;;
73675;SDS011;61975;48.660;10.164;2023-09-08T14:03:14;7.28;;;5.50;;
73675;SDS011;61975;48.660;10.164;2023-09-08T14:05:40;6.90;;;5.23;;
73675;SDS011;61975;48.660;10.164;2023-09-08T14:08:05;8.18;;;5.47;;
73675;SDS011;61975;48.660;10.164;2023-09-08T14:10:30;9.73;;;5.67;;
73675;SDS011;61975;48.660;10.164;2023-09-08T14:12:56;7.63;;;5.63;;
73675;SDS011;61975;48.660;10.164;2023-09-08T14:15:21;7.87;;;5.37;;
73675;SDS011;61975;48.660;10.164;2023-09-08T14:17:47;7.03;;;4.93;;
73675;SDS011;61975;48.660;10.164;2023-09-08T14:20:12;7.23;;;5.47;;
73675;SDS011;61975;48.660;10.164;2023-09-08T14:22:37;7.63;;;5.43;;
73675;SDS011;61975;48.660;10.164;2023-09-08T14:25:04;6.57;;;4.90;;
73675;SDS011;61975;48.660;10.164;2023-09-08T14:27:29;6.13;;;4.97;;
73675;SDS011;61975;48.660;10.164;2023-09-08T14:29:55;7.80;;;5.40;;
73675;SDS011;61975;48.660;10.164;2023-09-08T14:32:20;7.80;;;5.43;;
73675;SDS011;61975;48.660;10.164;2023-09-08T14:34:46;7.60;;;5.53;;
73675;SDS011;61975;48.660;10.164;2023-09-08T14:37:11;7.47;;;5.73;;
73675;SDS011;61975;48.660;10.164;2023-09-08T14:39:37;7.60;;;5.63;;
73675;SDS011;61975;48.660;10.164;2023-09-08T14:42:02;7.07;;;5.70;;
73675;SDS011;61975;48.660;10.164;2023-09-08T14:44:28;7.20;;;5.30;;